Decoded Metar for KRWI (ROCKY MOUNT in NC, USA) (IATA:RWI) | Meteo·Mobile Aviation Weather
aviador You're here:

KRWI Decoded Metar

ROCKY MOUNT in NC, USA
Report Time2019-02-19 12:53:00
UTC Time2019-02-19 13:47:10
Flight Rules vfr VFR
Wind020° at 03 kt
W.Decomp.*RWY 04: 2.9 kt HW 0.6 kt LCW
W.Rank020° ranks 6
Current wind is below 020° avg. (7.6)
Visibility9999 m
Phenomena:N/A
Clouds:N/A
Expected CloudBase > 1,600 ft AGL from Temp-Dew spread
CeilingNone
Temp03°C (ISA -12)
Dew Point-1°C (75% RH)
AAT-0.2°C
QNH1035 hPa
Density Alt-1,932 ft
Elevation154 ft
Report Wrong Elevation
Raw Report
METAR KRWI 191253Z AUTO 02003KT 10SM CLR 03/M01 A3057 RMK AO2 SLP354
T00281011=

Extra information for KRWI:More info

Metar Taf Metar & Taf Last 4 Metars F.Rules Stats Wind Profile Meteogram Temp Stats Airport Information Weather charts Add Link Nearby VenuesMetar ALERT Operation Metar Decoded Social comments

AIRNAV info for KRWI